createdAt,value
2022-11-19T00:04:37.820Z,15.32
2022-11-19T00:09:39.376Z,18.45
2022-11-19T00:14:41.158Z,19.13
2022-11-19T00:19:42.739Z,16.85
2022-11-19T00:24:44.278Z,18.50
2022-11-19T00:29:45.999Z,15.93
2022-11-19T00:34:47.776Z,19.92
2022-11-19T00:39:49.512Z,20.38
2022-11-19T00:44:51.359Z,18.45
2022-11-19T00:49:53.025Z,17.08
2022-11-19T00:54:54.626Z,17.08
2022-11-19T00:59:56.299Z,17.73
2022-11-19T01:04:57.945Z,18.00
2022-11-19T01:09:59.753Z,24.10
2022-11-19T01:15:01.339Z,22.10
2022-11-19T01:20:03.107Z,22.02
2022-11-19T01:25:05.136Z,24.88
2022-11-19T01:30:07.681Z,23.25
2022-11-19T01:35:09.434Z,24.50
2022-11-19T01:40:11.416Z,22.95
2022-11-19T01:45:33.220Z,23.38
2022-11-19T01:50:41.418Z,26.40
2022-11-19T01:55:44.362Z,25.30
2022-11-19T02:00:46.962Z,24.35
2022-11-19T02:05:48.690Z,26.77
2022-11-19T02:11:03.443Z,30.30
2022-11-19T02:16:40.672Z,35.17
2022-11-19T02:22:08.603Z,30.75
2022-11-19T02:27:46.674Z,34.47
2022-11-19T02:32:58.704Z,30.17
2022-11-19T02:38:27.898Z,29.58
2022-11-19T02:43:35.944Z,31.05
2022-11-19T02:48:42.041Z,25.60
2022-11-19T02:53:46.709Z,21.60
2022-11-19T02:58:52.622Z,21.98
2022-11-19T03:03:54.769Z,23.70
2022-11-19T03:08:56.516Z,17.98
2022-11-19T03:14:19.247Z,14.70
2022-11-19T03:19:42.951Z,11.25
2022-11-19T03:24:51.813Z,9.52
2022-11-19T03:29:57.944Z,10.82
2022-11-19T03:35:04.809Z,8.70
2022-11-19T03:45:19.902Z,7.47
2022-11-19T03:50:25.246Z,3.95
2022-11-19T03:55:34.362Z,4.28
2022-11-19T04:00:35.988Z,3.35
2022-11-19T04:05:37.531Z,4.22
2022-11-19T04:10:39.137Z,5.28
2022-11-19T04:15:40.710Z,4.80
2022-11-19T04:20:45.776Z,3.65
2022-11-19T04:25:47.449Z,4.07
2022-11-19T04:30:49.006Z,5.18
2022-11-19T04:35:50.539Z,5.13
2022-11-19T04:40:52.170Z,5.28
2022-11-19T04:45:53.945Z,6.82
2022-11-19T04:50:55.514Z,10.40
2022-11-19T04:55:57.111Z,8.38
2022-11-19T05:00:58.840Z,10.45
2022-11-19T05:06:00.645Z,12.27
2022-11-19T05:11:02.210Z,11.50
2022-11-19T05:16:04.012Z,11.85
2022-11-19T05:21:05.680Z,13.20
2022-11-19T05:26:07.206Z,13.10
2022-11-19T05:31:09.075Z,12.90
2022-11-19T05:36:10.683Z,16.15
2022-11-19T05:41:12.269Z,16.27
2022-11-19T05:46:13.819Z,22.60
2022-11-19T05:51:16.561Z,18.80
2022-11-19T05:56:18.184Z,21.45
2022-11-19T06:01:27.692Z,27.27
2022-11-19T06:06:29.234Z,25.38
2022-11-19T06:11:30.909Z,30.58
2022-11-19T06:16:32.462Z,26.67
2022-11-19T06:21:34.036Z,28.95
2022-11-19T06:26:35.968Z,26.95
2022-11-19T06:31:37.559Z,26.77
2022-11-19T06:36:43.752Z,29.20
2022-11-19T06:41:50.045Z,34.42
2022-11-19T06:46:51.740Z,31.60
2022-11-19T06:51:53.433Z,34.38
2022-11-19T06:56:55.055Z,35.22
2022-11-19T07:01:56.726Z,35.63
2022-11-19T07:06:58.386Z,39.97
2022-11-19T07:12:00.299Z,37.58
2022-11-19T07:17:05.172Z,32.53
2022-11-19T07:22:06.719Z,37.70
2022-11-19T07:27:08.512Z,36.75
2022-11-19T07:32:10.166Z,37.95
2022-11-19T07:37:11.782Z,35.30
2022-11-19T07:42:13.514Z,49.10
2022-11-19T07:47:15.720Z,36.25
2022-11-19T07:52:17.862Z,42.08
2022-11-19T07:57:20.016Z,38.60
2022-11-19T08:02:21.791Z,44.85
2022-11-19T08:07:23.365Z,42.03
2022-11-19T08:12:24.995Z,44.75
2022-11-19T08:17:31.267Z,40.22
2022-11-19T08:22:32.784Z,36.65
2022-11-19T08:27:34.323Z,39.10
2022-11-19T08:32:36.471Z,35.60
2022-11-19T08:37:38.138Z,32.03
2022-11-19T08:42:39.848Z,28.92
2022-11-19T08:47:41.451Z,30.15
2022-11-19T08:52:46.464Z,25.40
2022-11-19T08:57:48.424Z,26.15
2022-11-19T09:02:50.143Z,26.55
2022-11-19T09:07:51.854Z,23.48
2022-11-19T09:12:53.562Z,22.38
2022-11-19T09:17:55.122Z,19.60
2022-11-19T09:22:56.740Z,22.00
2022-11-19T09:27:58.456Z,20.95
2022-11-19T09:33:00.039Z,20.58
2022-11-19T09:38:01.762Z,21.23
2022-11-19T09:43:28.790Z,19.40
2022-11-19T09:48:38.494Z,19.38
2022-11-19T09:53:55.099Z,17.17
2022-11-19T09:58:59.028Z,19.20
2022-11-19T10:04:00.634Z,20.05
2022-11-19T10:09:23.224Z,15.88
2022-11-19T10:14:50.370Z,19.65
2022-11-19T10:20:01.748Z,17.48
2022-11-19T10:25:17.760Z,15.73
2022-11-19T10:30:25.375Z,15.93
2022-11-19T10:36:07.881Z,17.00
2022-11-19T10:41:22.236Z,18.02
2022-11-19T10:46:25.550Z,15.88
2022-11-19T10:51:39.642Z,20.15
2022-11-19T10:56:42.415Z,14.70
2022-11-19T11:01:47.024Z,21.92
2022-11-19T11:07:03.170Z,16.23
2022-11-19T11:12:12.971Z,16.63
2022-11-19T11:17:30.706Z,15.27
2022-11-19T11:22:33.988Z,14.15
2022-11-19T11:27:38.643Z,15.95
2022-11-19T11:32:41.342Z,14.98
2022-11-19T11:37:43.007Z,15.13
2022-11-19T11:42:46.592Z,15.48
2022-11-19T11:47:50.497Z,13.45
2022-11-19T11:52:54.435Z,14.60
2022-11-19T11:58:24.242Z,12.85
2022-11-19T12:03:25.913Z,14.23
2022-11-19T12:08:55.292Z,14.75
2022-11-19T12:14:11.334Z,15.85
2022-11-19T12:19:31.288Z,14.53
2022-11-19T12:24:39.111Z,11.02
2022-11-19T12:30:11.848Z,13.07
2022-11-19T12:35:46.085Z,13.82
2022-11-19T12:41:17.236Z,13.07
2022-11-19T12:46:49.397Z,14.40
2022-11-19T12:52:03.551Z,14.90
2022-11-19T12:57:33.027Z,14.60
2022-11-19T13:02:42.337Z,21.13
2022-11-19T13:08:06.297Z,11.93
2022-11-19T13:13:14.014Z,15.18
2022-11-19T13:18:19.309Z,13.98
2022-11-19T13:23:38.899Z,14.85
2022-11-19T13:28:50.426Z,13.73
2022-11-19T13:34:35.066Z,11.10
2022-11-19T13:39:52.164Z,13.55
2022-11-19T13:50:05.682Z,13.88
2022-11-19T13:55:42.203Z,15.80
2022-11-19T14:01:07.761Z,15.18
2022-11-19T14:06:35.771Z,13.48
2022-11-19T14:12:07.908Z,13.85
2022-11-19T14:17:28.026Z,13.38
2022-11-19T14:22:39.756Z,16.95
2022-11-19T14:27:42.503Z,15.35
2022-11-19T14:32:50.372Z,12.50
2022-11-19T14:37:55.669Z,14.00
2022-11-19T14:43:00.365Z,13.80
2022-11-19T14:48:03.947Z,13.98
2022-11-19T14:53:18.664Z,13.07
2022-11-19T14:58:24.345Z,14.38
2022-11-19T15:03:28.490Z,14.32
2022-11-19T15:08:46.751Z,15.20
2022-11-19T15:14:09.148Z,14.35
2022-11-19T15:19:46.128Z,14.23
2022-11-19T15:25:12.625Z,15.30
2022-11-19T15:30:27.322Z,13.50
2022-11-19T15:35:59.468Z,16.02
2022-11-19T15:41:03.345Z,15.93
2022-11-19T15:46:11.512Z,15.73
2022-11-19T15:51:16.404Z,17.08
2022-11-19T15:56:18.126Z,14.75
2022-11-19T16:01:21.637Z,23.80
2022-11-19T16:06:27.293Z,16.05
2022-11-19T16:11:32.156Z,16.45
2022-11-19T16:16:33.797Z,14.48
2022-11-19T16:21:39.557Z,15.45
2022-11-19T16:26:43.474Z,14.40
2022-11-19T16:31:45.178Z,14.50
2022-11-19T16:36:47.907Z,15.30
2022-11-19T16:41:51.497Z,16.67
2022-11-19T16:46:53.244Z,17.40
2022-11-19T16:51:54.832Z,14.82
2022-11-19T16:56:56.544Z,17.40
2022-11-19T17:01:58.951Z,15.73
2022-11-19T17:07:00.721Z,14.45
2022-11-19T17:12:02.402Z,15.90
2022-11-19T17:17:03.934Z,17.80
2022-11-19T17:22:15.534Z,16.95
2022-11-19T17:27:33.577Z,26.33
2022-11-19T17:32:41.521Z,19.30
2022-11-19T17:37:43.074Z,17.08
2022-11-19T17:42:44.591Z,17.33
2022-11-19T17:47:46.229Z,15.00
2022-11-19T17:52:47.741Z,13.27
2022-11-19T17:57:49.234Z,13.63
2022-11-19T18:02:50.735Z,14.23
2022-11-19T18:07:52.491Z,15.85
2022-11-19T18:12:54.243Z,14.65
2022-11-19T18:17:55.753Z,14.65
2022-11-19T18:22:57.336Z,13.57
2022-11-19T18:27:59.024Z,15.18
2022-11-19T18:33:00.550Z,14.82
2022-11-19T18:38:02.085Z,23.50
2022-11-19T18:43:03.736Z,37.00
2022-11-19T18:48:05.472Z,26.38
2022-11-19T18:53:09.767Z,17.48
2022-11-19T18:58:11.542Z,15.18
2022-11-19T19:03:13.361Z,15.00
2022-11-19T19:08:15.185Z,19.00
2022-11-19T19:13:16.780Z,18.95
2022-11-19T19:18:18.438Z,21.70
2022-11-19T19:23:20.071Z,18.42
2022-11-19T19:28:21.664Z,17.40
2022-11-19T19:33:23.262Z,17.50
2022-11-19T19:38:25.878Z,15.30
2022-11-19T19:43:29.544Z,24.50
2022-11-19T19:48:31.472Z,20.85
2022-11-19T19:53:33.256Z,34.95
2022-11-19T19:58:34.810Z,18.23
2022-11-19T20:03:36.889Z,20.38
2022-11-19T20:08:39.156Z,21.13
2022-11-19T20:13:41.602Z,18.48
2022-11-19T20:18:44.129Z,17.73
2022-11-19T20:23:46.685Z,17.48
2022-11-19T20:28:53.703Z,18.73
2022-11-19T20:33:58.061Z,20.23
2022-11-19T20:38:59.752Z,18.02
2022-11-19T20:44:02.331Z,18.80
2022-11-19T20:49:04.208Z,17.83
2022-11-19T20:54:06.161Z,14.27
2022-11-19T20:59:08.849Z,18.52
2022-11-19T21:04:11.747Z,20.58
2022-11-19T21:09:13.392Z,18.90
2022-11-19T21:14:14.922Z,17.35
2022-11-19T21:19:16.479Z,17.98
2022-11-19T21:24:17.974Z,20.30
2022-11-19T21:29:19.989Z,17.42
2022-11-19T21:34:21.861Z,18.95
2022-11-19T21:39:23.787Z,19.08
2022-11-19T21:44:25.772Z,16.70
2022-11-19T21:49:27.397Z,17.40
2022-11-19T21:54:28.939Z,18.42
2022-11-19T21:59:30.467Z,19.50
2022-11-19T22:04:32.143Z,18.77
2022-11-19T22:09:33.685Z,19.27
2022-11-19T22:14:35.220Z,19.10
2022-11-19T22:19:36.817Z,19.45
2022-11-19T22:24:38.363Z,16.02
2022-11-19T22:29:39.882Z,21.17
2022-11-19T22:34:41.419Z,22.45
2022-11-19T22:39:42.987Z,20.58
2022-11-19T22:44:44.512Z,23.38
2022-11-19T22:49:46.144Z,26.60
2022-11-19T22:54:47.940Z,19.70
2022-11-19T22:59:49.560Z,22.50
2022-11-19T23:04:51.157Z,22.98
2022-11-19T23:09:52.658Z,25.08
2022-11-19T23:14:54.297Z,20.95
2022-11-19T23:20:04.268Z,21.73
2022-11-19T23:25:06.620Z,19.60
2022-11-19T23:30:08.761Z,20.25
2022-11-19T23:35:10.742Z,19.77
2022-11-19T23:40:12.585Z,17.30
2022-11-19T23:45:14.157Z,22.80
2022-11-19T23:50:15.783Z,17.92
2022-11-19T23:55:17.560Z,21.73
